Terminal Aerodrome Forecast
Issued by NWS Cleveland, OH

Home | Current Version | Previous Version | Graphics & Text | Print | Product List | Glossary On
Versions: 1 2 3 4 5 6 7 8 9 10 11 12 13 14 15
000
FTUS41 KCLE 180147 AAA
TAFMFD
TAF AMD
KMFD 180147Z 1802/1824 18005KT 4SM -SN OVC008
      TEMPO 1803/1806 1SM -SN
     FM180600 26009KT P6SM OVC007
     FM181500 17008KT P6SM SKC=

USA.gov is the U.S. government's official web portal to all federal, state and local government web resources and services.